sensor_id;sensor_type;location;lat;lon;timestamp;pressure;altitude;pressure_sealevel;temperature;humidity
70916;BME280;58557;50.982;-3.222;2022-09-27T00:02:21;100045.52;;;14.94;45.91
70916;BME280;58557;50.982;-3.222;2022-09-27T00:04:52;100040.36;;;15.99;43.32
70916;BME280;58557;50.982;-3.222;2022-09-27T00:07:14;100043.49;;;15.68;43.98
70916;BME280;58557;50.982;-3.222;2022-09-27T00:09:38;100038.39;;;15.19;44.62
70916;BME280;58557;50.982;-3.222;2022-09-27T00:12:04;100040.41;;;15.60;44.48
70916;BME280;58557;50.982;-3.222;2022-09-27T00:14:29;100043.68;;;15.62;44.03
70916;BME280;58557;50.982;-3.222;2022-09-27T00:16:55;100045.07;;;16.11;42.29
70916;BME280;58557;50.982;-3.222;2022-09-27T00:19:25;100045.98;;;14.18;45.33
70916;BME280;58557;50.982;-3.222;2022-09-27T00:21:51;100040.04;;;15.61;43.67
70916;BME280;58557;50.982;-3.222;2022-09-27T00:24:12;100035.77;;;15.67;42.61
70916;BME280;58557;50.982;-3.222;2022-09-27T00:26:38;100039.91;;;15.16;43.45
70916;BME280;58557;50.982;-3.222;2022-09-27T00:29:02;100047.73;;;14.35;45.61
70916;BME280;58557;50.982;-3.222;2022-09-27T00:31:29;100049.71;;;13.04;47.72
70916;BME280;58557;50.982;-3.222;2022-09-27T00:33:55;100041.25;;;13.50;46.74
70916;BME280;58557;50.982;-3.222;2022-09-27T00:36:26;100047.79;;;14.07;46.54
70916;BME280;58557;50.982;-3.222;2022-09-27T00:38:46;100047.23;;;13.40;47.21
70916;BME280;58557;50.982;-3.222;2022-09-27T00:41:14;100054.94;;;14.34;45.08
70916;BME280;58557;50.982;-3.222;2022-09-27T00:43:43;100047.80;;;13.65;46.29
70916;BME280;58557;50.982;-3.222;2022-09-27T00:46:03;100050.11;;;13.07;48.26
70916;BME280;58557;50.982;-3.222;2022-09-27T00:48:34;100052.84;;;13.44;48.26
70916;BME280;58557;50.982;-3.222;2022-09-27T00:51:02;100034.46;;;13.65;47.31
70916;BME280;58557;50.982;-3.222;2022-09-27T00:53:28;100041.48;;;13.00;48.18
70916;BME280;58557;50.982;-3.222;2022-09-27T00:55:49;100038.62;;;12.87;48.81
70916;BME280;58557;50.982;-3.222;2022-09-27T00:58:11;100028.84;;;13.54;47.33
70916;BME280;58557;50.982;-3.222;2022-09-27T01:00:41;100029.28;;;13.51;46.66
70916;BME280;58557;50.982;-3.222;2022-09-27T01:03:04;100030.13;;;13.30;47.39
70916;BME280;58557;50.982;-3.222;2022-09-27T01:05:27;100033.02;;;13.36;47.34
70916;BME280;58557;50.982;-3.222;2022-09-27T01:07:52;100026.45;;;13.64;46.51
70916;BME280;58557;50.982;-3.222;2022-09-27T01:10:23;100031.62;;;14.00;45.94
70916;BME280;58557;50.982;-3.222;2022-09-27T01:12:52;100031.61;;;13.88;44.91
70916;BME280;58557;50.982;-3.222;2022-09-27T01:15:16;100042.72;;;13.70;45.53
70916;BME280;58557;50.982;-3.222;2022-09-27T01:17:43;100040.62;;;14.38;43.85
70916;BME280;58557;50.982;-3.222;2022-09-27T01:20:20;100038.50;;;15.47;42.27
70916;BME280;58557;50.982;-3.222;2022-09-27T01:22:29;100025.36;;;13.51;45.47
70916;BME280;58557;50.982;-3.222;2022-09-27T01:24:55;100027.46;;;13.95;44.92
70916;BME280;58557;50.982;-3.222;2022-09-27T01:27:34;100032.43;;;13.96;44.79
70916;BME280;58557;50.982;-3.222;2022-09-27T01:29:53;100035.61;;;14.79;43.64
70916;BME280;58557;50.982;-3.222;2022-09-27T01:32:17;100039.87;;;13.90;45.25
70916;BME280;58557;50.982;-3.222;2022-09-27T01:34:41;100027.75;;;14.50;44.51
70916;BME280;58557;50.982;-3.222;2022-09-27T01:37:06;100022.25;;;14.70;43.98
70916;BME280;58557;50.982;-3.222;2022-09-27T01:39:34;100017.79;;;14.26;44.98
70916;BME280;58557;50.982;-3.222;2022-09-27T01:41:58;100013.91;;;14.11;45.45
70916;BME280;58557;50.982;-3.222;2022-09-27T01:44:22;100007.56;;;14.42;45.61
70916;BME280;58557;50.982;-3.222;2022-09-27T01:46:47;100005.41;;;13.35;46.61
70916;BME280;58557;50.982;-3.222;2022-09-27T01:49:12;100002.58;;;13.69;46.26
70916;BME280;58557;50.982;-3.222;2022-09-27T01:51:39;100006.41;;;13.78;46.63
70916;BME280;58557;50.982;-3.222;2022-09-27T01:54:03;100011.11;;;13.88;46.23
70916;BME280;58557;50.982;-3.222;2022-09-27T01:56:30;100006.41;;;13.64;46.04
70916;BME280;58557;50.982;-3.222;2022-09-27T01:58:55;100005.45;;;14.87;43.80
70916;BME280;58557;50.982;-3.222;2022-09-27T02:01:18;100012.35;;;15.30;43.07
70916;BME280;58557;50.982;-3.222;2022-09-27T02:03:44;100023.19;;;16.01;41.98
70916;BME280;58557;50.982;-3.222;2022-09-27T02:06:11;100022.50;;;16.12;41.11
70916;BME280;58557;50.982;-3.222;2022-09-27T02:08:37;100019.85;;;16.56;40.25
70916;BME280;58557;50.982;-3.222;2022-09-27T02:11:01;100011.64;;;16.80;40.03
70916;BME280;58557;50.982;-3.222;2022-09-27T02:13:31;100009.53;;;16.51;40.28
70916;BME280;58557;50.982;-3.222;2022-09-27T02:15:57;100003.10;;;16.76;39.89
70916;BME280;58557;50.982;-3.222;2022-09-27T02:18:18;100000.21;;;15.46;41.56
70916;BME280;58557;50.982;-3.222;2022-09-27T02:20:50;99997.98;;;17.20;39.74
70916;BME280;58557;50.982;-3.222;2022-09-27T02:23:18;99997.60;;;15.41;42.57
70916;BME280;58557;50.982;-3.222;2022-09-27T02:25:38;99995.85;;;15.17;42.95
70916;BME280;58557;50.982;-3.222;2022-09-27T02:28:00;99999.44;;;15.38;42.94
70916;BME280;58557;50.982;-3.222;2022-09-27T02:30:24;99999.98;;;16.40;41.71
70916;BME280;58557;50.982;-3.222;2022-09-27T02:32:51;100003.10;;;15.93;42.43
70916;BME280;58557;50.982;-3.222;2022-09-27T02:35:25;100000.03;;;16.00;42.21
70916;BME280;58557;50.982;-3.222;2022-09-27T02:37:41;99996.50;;;15.00;42.58
70916;BME280;58557;50.982;-3.222;2022-09-27T02:40:12;99992.14;;;15.19;42.72
70916;BME280;58557;50.982;-3.222;2022-09-27T02:42:34;100006.19;;;14.88;43.44
70916;BME280;58557;50.982;-3.222;2022-09-27T02:45:04;99995.95;;;15.47;42.57
70916;BME280;58557;50.982;-3.222;2022-09-27T02:47:36;99998.21;;;14.78;43.69
70916;BME280;58557;50.982;-3.222;2022-09-27T02:50:05;99992.21;;;13.82;44.79
70916;BME280;58557;50.982;-3.222;2022-09-27T02:52:23;99991.49;;;14.55;43.79
70916;BME280;58557;50.982;-3.222;2022-09-27T02:54:54;99978.35;;;14.44;43.90
70916;BME280;58557;50.982;-3.222;2022-09-27T02:57:18;99976.66;;;14.20;44.10
70916;BME280;58557;50.982;-3.222;2022-09-27T02:59:39;99969.71;;;14.52;43.27
70916;BME280;58557;50.982;-3.222;2022-09-27T03:02:05;99968.19;;;15.16;42.08
70916;BME280;58557;50.982;-3.222;2022-09-27T03:04:29;99961.19;;;15.96;41.06
70916;BME280;58557;50.982;-3.222;2022-09-27T03:06:50;99967.53;;;15.48;42.72
70916;BME280;58557;50.982;-3.222;2022-09-27T03:09:17;99967.87;;;14.36;44.03
70916;BME280;58557;50.982;-3.222;2022-09-27T03:11:41;99969.59;;;14.72;43.13
70916;BME280;58557;50.982;-3.222;2022-09-27T03:14:06;99970.19;;;14.99;42.85
70916;BME280;58557;50.982;-3.222;2022-09-27T03:16:32;99972.22;;;14.62;42.81
70916;BME280;58557;50.982;-3.222;2022-09-27T03:19:03;99972.04;;;14.09;44.08
70916;BME280;58557;50.982;-3.222;2022-09-27T03:21:28;99970.70;;;13.91;43.62
70916;BME280;58557;50.982;-3.222;2022-09-27T03:23:49;99965.07;;;14.33;43.15
70916;BME280;58557;50.982;-3.222;2022-09-27T03:26:14;99963.22;;;13.66;44.01
70916;BME280;58557;50.982;-3.222;2022-09-27T03:28:41;99963.52;;;12.95;45.17
70916;BME280;58557;50.982;-3.222;2022-09-27T03:31:05;99962.35;;;14.18;43.60
70916;BME280;58557;50.982;-3.222;2022-09-27T03:33:32;99957.71;;;15.00;42.58
70916;BME280;58557;50.982;-3.222;2022-09-27T03:36:02;99958.18;;;14.85;42.99
70916;BME280;58557;50.982;-3.222;2022-09-27T03:38:23;99944.33;;;14.14;43.38
70916;BME280;58557;50.982;-3.222;2022-09-27T03:40:53;99941.79;;;15.09;41.78
70916;BME280;58557;50.982;-3.222;2022-09-27T03:43:19;99946.39;;;14.08;43.21
70916;BME280;58557;50.982;-3.222;2022-09-27T03:45:42;99939.14;;;15.80;41.21
70916;BME280;58557;50.982;-3.222;2022-09-27T03:48:06;99933.22;;;14.35;42.66
70916;BME280;58557;50.982;-3.222;2022-09-27T03:50:31;99936.04;;;15.88;40.53
70916;BME280;58557;50.982;-3.222;2022-09-27T03:52:57;99934.63;;;15.53;40.67
70916;BME280;58557;50.982;-3.222;2022-09-27T03:55:23;99932.47;;;15.03;42.31
70916;BME280;58557;50.982;-3.222;2022-09-27T03:57:48;99927.82;;;14.65;43.87
70916;BME280;58557;50.982;-3.222;2022-09-27T04:00:15;99923.10;;;15.24;43.47
70916;BME280;58557;50.982;-3.222;2022-09-27T04:02:41;99918.29;;;15.38;43.24
70916;BME280;58557;50.982;-3.222;2022-09-27T04:05:06;99923.13;;;15.39;42.48
70916;BME280;58557;50.982;-3.222;2022-09-27T04:07:31;99930.29;;;15.94;42.10
70916;BME280;58557;50.982;-3.222;2022-09-27T04:09:56;99927.51;;;13.22;47.24
70916;BME280;58557;50.982;-3.222;2022-09-27T04:12:22;99920.03;;;13.98;45.01
70916;BME280;58557;50.982;-3.222;2022-09-27T04:14:53;99907.79;;;15.04;43.53
70916;BME280;58557;50.982;-3.222;2022-09-27T04:17:19;99913.87;;;14.92;44.03
70916;BME280;58557;50.982;-3.222;2022-09-27T04:19:40;99915.51;;;14.94;43.81
70916;BME280;58557;50.982;-3.222;2022-09-27T04:22:05;99917.65;;;14.92;44.21
70916;BME280;58557;50.982;-3.222;2022-09-27T04:24:31;99912.04;;;14.88;43.47
70916;BME280;58557;50.982;-3.222;2022-09-27T04:26:57;99907.60;;;14.25;45.34
70916;BME280;58557;50.982;-3.222;2022-09-27T04:29:23;99903.32;;;15.32;43.47
70916;BME280;58557;50.982;-3.222;2022-09-27T04:31:48;99903.80;;;15.76;43.19
70916;BME280;58557;50.982;-3.222;2022-09-27T04:34:14;99896.83;;;15.44;43.41
70916;BME280;58557;50.982;-3.222;2022-09-27T04:36:40;99890.05;;;16.00;42.15
70916;BME280;58557;50.982;-3.222;2022-09-27T04:39:10;99896.98;;;15.24;43.60
70916;BME280;58557;50.982;-3.222;2022-09-27T04:41:32;99899.06;;;15.09;44.03
70916;BME280;58557;50.982;-3.222;2022-09-27T04:43:57;99901.90;;;16.31;42.35
70916;BME280;58557;50.982;-3.222;2022-09-27T04:46:28;99892.12;;;14.53;44.57
70916;BME280;58557;50.982;-3.222;2022-09-27T04:48:53;99891.24;;;13.26;47.71
70916;BME280;58557;50.982;-3.222;2022-09-27T04:51:14;99888.60;;;15.02;45.37
70916;BME280;58557;50.982;-3.222;2022-09-27T04:53:39;99895.40;;;14.68;45.29
70916;BME280;58557;50.982;-3.222;2022-09-27T04:56:05;99891.52;;;15.79;43.50
70916;BME280;58557;50.982;-3.222;2022-09-27T04:58:31;99885.87;;;14.34;45.37
70916;BME280;58557;50.982;-3.222;2022-09-27T05:00:57;99889.36;;;14.24;46.77
70916;BME280;58557;50.982;-3.222;2022-09-27T05:03:23;99885.09;;;13.74;47.19
70916;BME280;58557;50.982;-3.222;2022-09-27T05:05:47;99881.84;;;15.35;44.91
70916;BME280;58557;50.982;-3.222;2022-09-27T05:08:13;99883.83;;;15.23;44.74
70916;BME280;58557;50.982;-3.222;2022-09-27T05:10:43;99880.72;;;14.33;46.79
70916;BME280;58557;50.982;-3.222;2022-09-27T05:13:04;99879.86;;;14.48;46.65
70916;BME280;58557;50.982;-3.222;2022-09-27T05:15:30;99879.30;;;14.76;46.57
70916;BME280;58557;50.982;-3.222;2022-09-27T05:17:56;99876.73;;;14.85;46.38
70916;BME280;58557;50.982;-3.222;2022-09-27T05:20:27;99881.86;;;12.92;50.48
70916;BME280;58557;50.982;-3.222;2022-09-27T05:22:47;99875.10;;;12.91;50.60
70916;BME280;58557;50.982;-3.222;2022-09-27T05:25:13;99879.93;;;13.69;49.63
70916;BME280;58557;50.982;-3.222;2022-09-27T05:27:39;99877.31;;;12.63;51.59
70916;BME280;58557;50.982;-3.222;2022-09-27T05:30:06;99884.39;;;13.46;50.48
70916;BME280;58557;50.982;-3.222;2022-09-27T05:32:30;99882.23;;;13.74;49.57
70916;BME280;58557;50.982;-3.222;2022-09-27T05:34:56;99877.50;;;14.94;47.52
70916;BME280;58557;50.982;-3.222;2022-09-27T05:37:22;99876.97;;;14.16;48.84
70916;BME280;58557;50.982;-3.222;2022-09-27T05:39:53;99878.35;;;13.72;49.91
70916;BME280;58557;50.982;-3.222;2022-09-27T05:42:13;99886.25;;;12.57;51.97
70916;BME280;58557;50.982;-3.222;2022-09-27T05:44:39;99878.02;;;14.17;49.22
70916;BME280;58557;50.982;-3.222;2022-09-27T05:47:05;99881.98;;;15.23;47.70
70916;BME280;58557;50.982;-3.222;2022-09-27T05:49:30;99879.61;;;14.62;48.10
70916;BME280;58557;50.982;-3.222;2022-09-27T05:52:01;99875.80;;;15.36;46.22
70916;BME280;58557;50.982;-3.222;2022-09-27T05:54:22;99875.98;;;14.98;47.58
70916;BME280;58557;50.982;-3.222;2022-09-27T05:56:47;99881.98;;;14.52;48.75
70916;BME280;58557;50.982;-3.222;2022-09-27T05:59:13;99864.84;;;14.72;47.37
70916;BME280;58557;50.982;-3.222;2022-09-27T06:01:38;99875.95;;;16.10;44.65
70916;BME280;58557;50.982;-3.222;2022-09-27T06:04:09;99871.75;;;16.72;43.13
70916;BME280;58557;50.982;-3.222;2022-09-27T06:06:35;99881.68;;;15.26;45.07
70916;BME280;58557;50.982;-3.222;2022-09-27T06:08:54;99883.54;;;15.59;45.90
70916;BME280;58557;50.982;-3.222;2022-09-27T06:11:20;99880.09;;;15.53;45.50
70916;BME280;58557;50.982;-3.222;2022-09-27T06:13:51;99876.38;;;15.22;46.39
70916;BME280;58557;50.982;-3.222;2022-09-27T06:16:16;99871.82;;;15.43;45.33
70916;BME280;58557;50.982;-3.222;2022-09-27T06:18:42;99868.83;;;15.69;44.70
70916;BME280;58557;50.982;-3.222;2022-09-27T06:21:07;99871.91;;;15.85;43.81
70916;BME280;58557;50.982;-3.222;2022-09-27T06:23:33;99867.90;;;15.12;44.75
70916;BME280;58557;50.982;-3.222;2022-09-27T06:25:53;99867.27;;;15.76;44.11
70916;BME280;58557;50.982;-3.222;2022-09-27T06:28:19;99862.43;;;14.92;45.73
70916;BME280;58557;50.982;-3.222;2022-09-27T06:30:45;99863.22;;;14.18;47.98
70916;BME280;58557;50.982;-3.222;2022-09-27T06:33:13;99868.98;;;15.72;45.00
70916;BME280;58557;50.982;-3.222;2022-09-27T06:35:35;99860.33;;;15.40;45.44
70916;BME280;58557;50.982;-3.222;2022-09-27T06:38:02;99848.74;;;15.90;45.05
70916;BME280;58557;50.982;-3.222;2022-09-27T06:40:27;99855.92;;;14.49;46.57
70916;BME280;58557;50.982;-3.222;2022-09-27T06:42:52;99855.93;;;15.05;45.58
70916;BME280;58557;50.982;-3.222;2022-09-27T06:45:18;99859.84;;;15.31;45.39
70916;BME280;58557;50.982;-3.222;2022-09-27T06:47:43;99862.53;;;13.77;48.09
70916;BME280;58557;50.982;-3.222;2022-09-27T06:50:09;99855.69;;;14.23;48.20
70916;BME280;58557;50.982;-3.222;2022-09-27T06:52:36;99844.35;;;14.65;47.29
70916;BME280;58557;50.982;-3.222;2022-09-27T06:54:59;99855.02;;;15.13;47.12
70916;BME280;58557;50.982;-3.222;2022-09-27T06:57:30;99845.66;;;13.11;50.83
70916;BME280;58557;50.982;-3.222;2022-09-27T06:59:55;99844.32;;;14.43;48.82
70916;BME280;58557;50.982;-3.222;2022-09-27T07:02:15;99843.68;;;14.84;48.08
70916;BME280;58557;50.982;-3.222;2022-09-27T07:04:41;99839.19;;;14.10;48.88
70916;BME280;58557;50.982;-3.222;2022-09-27T07:07:07;99842.90;;;14.57;48.29
70916;BME280;58557;50.982;-3.222;2022-09-27T07:09:38;99842.77;;;13.38;50.19
70916;BME280;58557;50.982;-3.222;2022-09-27T07:11:58;99843.32;;;14.96;47.77
70916;BME280;58557;50.982;-3.222;2022-09-27T07:14:23;99844.67;;;15.23;46.86
70916;BME280;58557;50.982;-3.222;2022-09-27T07:16:54;99846.16;;;14.64;47.58
70916;BME280;58557;50.982;-3.222;2022-09-27T07:19:15;99844.65;;;14.27;48.12
70916;BME280;58557;50.982;-3.222;2022-09-27T07:21:40;99850.00;;;15.00;47.20
70916;BME280;58557;50.982;-3.222;2022-09-27T07:24:11;99844.47;;;14.39;48.30
70916;BME280;58557;50.982;-3.222;2022-09-27T07:26:32;99843.90;;;15.59;46.20
70916;BME280;58557;50.982;-3.222;2022-09-27T07:28:57;99834.16;;;15.52;46.10
70916;BME280;58557;50.982;-3.222;2022-09-27T07:31:27;99824.84;;;15.43;45.27
70916;BME280;58557;50.982;-3.222;2022-09-27T07:33:48;99821.59;;;15.98;45.27
70916;BME280;58557;50.982;-3.222;2022-09-27T07:36:14;99814.37;;;14.96;47.11
70916;BME280;58557;50.982;-3.222;2022-09-27T07:38:40;99818.87;;;14.99;47.32
70916;BME280;58557;50.982;-3.222;2022-09-27T07:41:11;99818.93;;;16.40;44.83
70916;BME280;58557;50.982;-3.222;2022-09-27T07:43:31;99814.30;;;17.20;43.26
70916;BME280;58557;50.982;-3.222;2022-09-27T07:46:00;99812.45;;;16.55;43.93
70916;BME280;58557;50.982;-3.222;2022-09-27T07:48:21;99815.64;;;14.66;46.88
70916;BME280;58557;50.982;-3.222;2022-09-27T07:50:46;99820.37;;;16.51;44.41
70916;BME280;58557;50.982;-3.222;2022-09-27T07:53:16;99824.19;;;15.71;46.11
70916;BME280;58557;50.982;-3.222;2022-09-27T07:55:37;99829.16;;;16.06;45.09
70916;BME280;58557;50.982;-3.222;2022-09-27T07:58:09;99817.28;;;15.56;45.86
70916;BME280;58557;50.982;-3.222;2022-09-27T08:00:28;99819.98;;;15.76;44.79
70916;BME280;58557;50.982;-3.222;2022-09-27T08:02:54;99818.88;;;15.61;46.12
70916;BME280;58557;50.982;-3.222;2022-09-27T08:05:20;99805.36;;;16.46;44.63
70916;BME280;58557;50.982;-3.222;2022-09-27T08:07:54;99813.97;;;16.26;44.05
70916;BME280;58557;50.982;-3.222;2022-09-27T08:10:10;99800.96;;;16.77;44.09
70916;BME280;58557;50.982;-3.222;2022-09-27T08:12:40;99805.67;;;16.70;43.56
70916;BME280;58557;50.982;-3.222;2022-09-27T08:15:05;99818.23;;;16.60;44.54
70916;BME280;58557;50.982;-3.222;2022-09-27T08:17:26;99820.74;;;16.36;44.22
70916;BME280;58557;50.982;-3.222;2022-09-27T08:19:51;99816.97;;;15.12;46.12
70916;BME280;58557;50.982;-3.222;2022-09-27T08:22:18;99815.00;;;14.50;48.42
70916;BME280;58557;50.982;-3.222;2022-09-27T08:24:42;99815.31;;;15.26;48.08
70916;BME280;58557;50.982;-3.222;2022-09-27T08:27:08;99814.90;;;15.89;45.12
70916;BME280;58557;50.982;-3.222;2022-09-27T08:29:35;99822.06;;;15.75;45.92
70916;BME280;58557;50.982;-3.222;2022-09-27T08:31:59;99820.29;;;16.99;44.18
70916;BME280;58557;50.982;-3.222;2022-09-27T08:34:24;99828.26;;;16.11;44.61
70916;BME280;58557;50.982;-3.222;2022-09-27T08:36:55;99823.15;;;17.25;43.85
70916;BME280;58557;50.982;-3.222;2022-09-27T08:39:21;99825.33;;;15.83;45.81
70916;BME280;58557;50.982;-3.222;2022-09-27T08:41:46;99824.47;;;15.01;46.20
70916;BME280;58557;50.982;-3.222;2022-09-27T08:44:13;99827.04;;;14.91;47.26
70916;BME280;58557;50.982;-3.222;2022-09-27T08:46:40;99820.33;;;15.25;47.01
70916;BME280;58557;50.982;-3.222;2022-09-27T08:49:03;99814.38;;;15.99;45.42
70916;BME280;58557;50.982;-3.222;2022-09-27T08:51:30;99822.51;;;15.86;45.21
70916;BME280;58557;50.982;-3.222;2022-09-27T08:53:54;99821.11;;;15.49;46.20
70916;BME280;58557;50.982;-3.222;2022-09-27T08:56:14;99817.51;;;16.50;44.48
70916;BME280;58557;50.982;-3.222;2022-09-27T08:58:44;99807.92;;;15.67;45.95
70916;BME280;58557;50.982;-3.222;2022-09-27T09:01:12;99806.13;;;15.29;45.95
70916;BME280;58557;50.982;-3.222;2022-09-27T09:03:43;99807.04;;;15.23;46.43
70916;BME280;58557;50.982;-3.222;2022-09-27T09:06:08;99804.69;;;14.65;47.62
70916;BME280;58557;50.982;-3.222;2022-09-27T09:08:31;99807.21;;;15.75;46.39
70916;BME280;58557;50.982;-3.222;2022-09-27T09:11:01;99801.74;;;15.19;46.15
70916;BME280;58557;50.982;-3.222;2022-09-27T09:13:21;99802.31;;;14.99;46.77
70916;BME280;58557;50.982;-3.222;2022-09-27T09:15:43;99798.64;;;14.80;47.51
70916;BME280;58557;50.982;-3.222;2022-09-27T09:18:18;99803.08;;;15.44;46.29
70916;BME280;58557;50.982;-3.222;2022-09-27T09:20:38;99803.70;;;15.45;46.32
70916;BME280;58557;50.982;-3.222;2022-09-27T09:23:17;99803.36;;;16.08;45.44
70916;BME280;58557;50.982;-3.222;2022-09-27T09:25:28;99807.35;;;14.39;47.68
70916;BME280;58557;50.982;-3.222;2022-09-27T09:28:01;99799.87;;;14.85;47.30
70916;BME280;58557;50.982;-3.222;2022-09-27T09:30:18;99796.78;;;16.04;45.01
70916;BME280;58557;50.982;-3.222;2022-09-27T09:32:45;99793.32;;;15.94;44.97
70916;BME280;58557;50.982;-3.222;2022-09-27T09:35:06;99797.02;;;15.80;45.20
70916;BME280;58557;50.982;-3.222;2022-09-27T09:37:34;99799.66;;;16.15;44.83
70916;BME280;58557;50.982;-3.222;2022-09-27T09:39:57;99791.18;;;15.24;46.33
70916;BME280;58557;50.982;-3.222;2022-09-27T09:42:23;99784.47;;;14.62;46.75
70916;BME280;58557;50.982;-3.222;2022-09-27T09:44:50;99791.95;;;15.56;46.09
70916;BME280;58557;50.982;-3.222;2022-09-27T09:47:17;99786.50;;;16.31;44.85
70916;BME280;58557;50.982;-3.222;2022-09-27T09:49:40;99781.04;;;16.62;44.10
70916;BME280;58557;50.982;-3.222;2022-09-27T09:52:06;99787.13;;;17.50;42.27
70916;BME280;58557;50.982;-3.222;2022-09-27T09:54:36;99784.22;;;15.99;45.56
70916;BME280;58557;50.982;-3.222;2022-09-27T09:56:58;99776.12;;;17.94;41.99
70916;BME280;58557;50.982;-3.222;2022-09-27T09:59:19;99774.34;;;16.65;42.77
70916;BME280;58557;50.982;-3.222;2022-09-27T10:01:44;99772.15;;;15.43;46.11
70916;BME280;58557;50.982;-3.222;2022-09-27T10:04:09;99769.58;;;16.63;45.35
70916;BME280;58557;50.982;-3.222;2022-09-27T10:06:33;99768.86;;;16.48;45.89
70916;BME280;58557;50.982;-3.222;2022-09-27T10:08:58;99761.19;;;14.90;47.91
70916;BME280;58557;50.982;-3.222;2022-09-27T10:11:36;99754.79;;;16.15;45.09
70916;BME280;58557;50.982;-3.222;2022-09-27T10:13:51;99757.81;;;16.55;43.95
70916;BME280;58557;50.982;-3.222;2022-09-27T10:16:17;99764.98;;;16.64;44.73
70916;BME280;58557;50.982;-3.222;2022-09-27T10:18:46;99769.04;;;17.78;42.61
70916;BME280;58557;50.982;-3.222;2022-09-27T10:21:17;99760.75;;;16.98;42.24
70916;BME280;58557;50.982;-3.222;2022-09-27T10:23:32;99751.17;;;18.09;40.90
70916;BME280;58557;50.982;-3.222;2022-09-27T10:25:58;99757.69;;;18.62;39.86
70916;BME280;58557;50.982;-3.222;2022-09-27T10:28:31;99757.68;;;18.29;38.95
70916;BME280;58557;50.982;-3.222;2022-09-27T10:30:54;99760.04;;;17.00;41.15
70916;BME280;58557;50.982;-3.222;2022-09-27T10:33:16;99755.01;;;16.90;41.77
70916;BME280;58557;50.982;-3.222;2022-09-27T10:35:46;99750.22;;;16.96;41.09
70916;BME280;58557;50.982;-3.222;2022-09-27T10:40:31;99748.50;;;16.53;42.53
70916;BME280;58557;50.982;-3.222;2022-09-27T10:42:56;99743.58;;;18.02;40.25
70916;BME280;58557;50.982;-3.222;2022-09-27T10:45:28;99737.00;;;18.55;38.94
70916;BME280;58557;50.982;-3.222;2022-09-27T10:47:48;99740.35;;;17.68;39.39
70916;BME280;58557;50.982;-3.222;2022-09-27T10:50:17;99740.11;;;17.34;40.47
70916;BME280;58557;50.982;-3.222;2022-09-27T10:52:44;99734.74;;;17.33;40.67
70916;BME280;58557;50.982;-3.222;2022-09-27T10:55:19;99729.47;;;17.16;42.00
70916;BME280;58557;50.982;-3.222;2022-09-27T10:57:31;99723.81;;;17.41;41.31
70916;BME280;58557;50.982;-3.222;2022-09-27T10:59:58;99720.36;;;17.42;40.34
70916;BME280;58557;50.982;-3.222;2022-09-27T11:02:25;99718.36;;;17.89;38.87
70916;BME280;58557;50.982;-3.222;2022-09-27T11:07:14;99707.32;;;16.49;41.01
70916;BME280;58557;50.982;-3.222;2022-09-27T11:09:44;99705.64;;;17.05;40.96
70916;BME280;58557;50.982;-3.222;2022-09-27T11:12:08;99699.79;;;17.26;40.68
70916;BME280;58557;50.982;-3.222;2022-09-27T11:14:28;99702.63;;;17.65;38.40
70916;BME280;58557;50.982;-3.222;2022-09-27T11:17:09;99702.03;;;17.26;39.32
70916;BME280;58557;50.982;-3.222;2022-09-27T11:19:37;99709.34;;;17.04;39.39
70916;BME280;58557;50.982;-3.222;2022-09-27T11:21:54;99702.53;;;17.05;40.15
70916;BME280;58557;50.982;-3.222;2022-09-27T11:26:45;99696.60;;;16.98;40.01
70916;BME280;58557;50.982;-3.222;2022-09-27T11:29:13;99702.06;;;17.42;38.93
70916;BME280;58557;50.982;-3.222;2022-09-27T11:31:37;99699.62;;;16.82;38.40
70916;BME280;58557;50.982;-3.222;2022-09-27T11:34:06;99704.36;;;16.70;39.79
70916;BME280;58557;50.982;-3.222;2022-09-27T11:38:53;99699.42;;;16.04;41.36
70916;BME280;58557;50.982;-3.222;2022-09-27T11:41:20;99695.19;;;16.32;41.40
70916;BME280;58557;50.982;-3.222;2022-09-27T11:43:50;99697.88;;;16.82;41.48
70916;BME280;58557;50.982;-3.222;2022-09-27T11:46:13;99692.49;;;17.12;39.26
70916;BME280;58557;50.982;-3.222;2022-09-27T11:48:40;99682.47;;;16.64;40.44
70916;BME280;58557;50.982;-3.222;2022-09-27T11:51:05;99685.55;;;17.01;40.37
70916;BME280;58557;50.982;-3.222;2022-09-27T11:53:28;99682.15;;;16.30;41.48
70916;BME280;58557;50.982;-3.222;2022-09-27T11:55:49;99685.16;;;16.40;41.92
70916;BME280;58557;50.982;-3.222;2022-09-27T11:58:19;99681.17;;;16.11;41.86
70916;BME280;58557;50.982;-3.222;2022-09-27T12:00:46;99682.28;;;15.73;42.53
70916;BME280;58557;50.982;-3.222;2022-09-27T12:05:35;99679.09;;;16.26;42.38
70916;BME280;58557;50.982;-3.222;2022-09-27T12:08:00;99676.23;;;15.52;43.72
70916;BME280;58557;50.982;-3.222;2022-09-27T12:10:17;99679.83;;;17.90;39.72
70916;BME280;58557;50.982;-3.222;2022-09-27T12:12:51;99677.26;;;16.28;42.09
70916;BME280;58557;50.982;-3.222;2022-09-27T12:15:12;99679.82;;;16.17;42.57
70916;BME280;58557;50.982;-3.222;2022-09-27T12:17:33;99679.39;;;16.89;41.05
70916;BME280;58557;50.982;-3.222;2022-09-27T12:20:08;99673.32;;;17.59;40.05
70916;BME280;58557;50.982;-3.222;2022-09-27T12:22:31;99672.73;;;17.55;40.24
70916;BME280;58557;50.982;-3.222;2022-09-27T12:24:49;99677.63;;;17.75;38.81
70916;BME280;58557;50.982;-3.222;2022-09-27T12:27:22;99675.33;;;17.11;39.26
70916;BME280;58557;50.982;-3.222;2022-09-27T12:29:41;99668.24;;;17.30;39.55
70916;BME280;58557;50.982;-3.222;2022-09-27T12:32:15;99665.39;;;17.68;38.37
70916;BME280;58557;50.982;-3.222;2022-09-27T12:34:36;99669.54;;;17.62;38.40
70916;BME280;58557;50.982;-3.222;2022-09-27T12:37:02;99670.95;;;16.58;40.82
70916;BME280;58557;50.982;-3.222;2022-09-27T12:39:24;99667.27;;;17.13;40.14
70916;BME280;58557;50.982;-3.222;2022-09-27T12:41:52;99662.43;;;15.47;42.61
70916;BME280;58557;50.982;-3.222;2022-09-27T12:44:17;99663.39;;;16.76;39.42
70916;BME280;58557;50.982;-3.222;2022-09-27T12:46:52;99662.36;;;16.13;40.66
70916;BME280;58557;50.982;-3.222;2022-09-27T12:49:09;99650.41;;;16.23;40.73
70916;BME280;58557;50.982;-3.222;2022-09-27T12:51:34;99647.72;;;16.57;40.49